Basehor, Kansas
Current Conditions -  °F | °C
As of 1:53 AM on Friday 31 Oct 2014 (Local Time) from KMCI Reporting Station
Overcast Overcast  
Wind Chill: 50°   Ceiling: 6500
Heat Index: 50°   Visibility: 10mi
Dew Point: 41°   Wind: 20mph
Humidity: 71%   Direction: 360°N
Pressure: 30.26"   Gusts: 28mph
Location:  39.14°N, 94.94°W
Report Text: KMCI 310653Z 36017G24KT 10SM SCT030 OVC065 10/05 A3026 RMK AO2 PK WND 35028/0632 SLP243 T01000050 $
Loading
Personal Weather Stations






























Interactive Weather Map
Tropical Storm Tracking
New forecast layout! Learn more

10-Day Weather Forecast

Advertisements
Track Severe Weather on mobile